Symphony Sea — PDDJ — position and weather

sailwx.info

Track history (hours):
 
Tides and Currents Weather Stations Pressure Air Temp Water Temp Dewpoint Dewpoint Depression Visibility Wind Speed Wind Dir Waves Ship Positions

Symphony Sea

Last reported at 2017-Nov-24 19:55 UTC. Time now 2017-Nov-25 02:07 UTC.
Position N 39°34' E 024°16'.

Length 120 m; draft 5 m.

Type: Cargo ship. MMSI: 244770273.

Date/timePositionNaut miles runAvg speedWind from/ knotsBaromVisibWave heightAir tempDewpointWater temp
2017-Nov-24 19:55N 39°34' E 024°16'512.5
2017-Nov-24 19:30N 39°37' E 024°10'712.1
2017-Nov-24 18:58N 39°39' E 024°02'  
2017-Nov-15 16:34N 40°45' E 029°30'310.9
2017-Nov-15 16:17N 40°44' E 029°26'310.2
2017-Nov-15 16:00N 40°43' E 029°23'4 7.4
2017-Nov-15 15:30N 40°43' E 029°18'611.8
2017-Nov-15 15:00N 40°43' E 029°10'611.7
2017-Nov-15 14:31N 40°43' E 029°02'  
Track history (hours):
 
Tides and Currents Weather Stations Pressure Air Temp Water Temp Dewpoint Dewpoint Depression Visibility Wind Speed Wind Dir Waves Ship Positions

Symphony Sea

Last reported at 2017-Nov-24 19:55 UTC. Time now 2017-Nov-25 02:07 UTC.
Position N 39°34' E 024°16'.

Length 120 m; draft 5 m.

Type: Cargo ship. MMSI: 244770273.

Date/timePositionNaut miles runAvg speedWind from/ knotsBaromVisibWave heightAir tempDewpointWater temp
2017-Nov-24 19:55N 39°34' E 024°16'512.5
2017-Nov-24 19:30N 39°37' E 024°10'712.1
2017-Nov-24 18:58N 39°39' E 024°02'  
2017-Nov-15 16:34N 40°45' E 029°30'310.9
2017-Nov-15 16:17N 40°44' E 029°26'310.2
2017-Nov-15 16:00N 40°43' E 029°23'4 7.4
2017-Nov-15 15:30N 40°43' E 029°18'611.8
2017-Nov-15 15:00N 40°43' E 029°10'611.7
2017-Nov-15 14:31N 40°43' E 029°02'  

Dump ship's entire track history